Time;durP1;ratioP1;P1;durP2;ratioP2;P2;SDS_P1;SDS_P2;PMS_P1;PMS_P2;Temp;Humidity;BMP_temperature;BMP_pressure;BME280_temperature;BME280_humidity;BME280_pressure;Samples;Min_cycle;Max_cycle;Signal;HPM_P1;HPM_P2
2022/12/18 00:00:57;;;;;;;9.13;4.40;;;;;;;2.71;100.00;101809.09;5029767;28;20471;-73
2022/12/18 00:03:22;;;;;;;6.45;3.72;;;;;;;2.58;100.00;101810.47;5028473;28;20139;-72
2022/12/18 00:05:49;;;;;;;7.97;3.45;;;;;;;2.39;100.00;101827.50;5024087;28;20123;-73
2022/12/18 00:08:15;;;;;;;9.88;4.28;;;;;;;2.22;100.00;101820.47;5028724;28;20049;-72
2022/12/18 00:10:41;;;;;;;6.35;3.72;;;;;;;2.28;100.00;101825.38;5022841;28;20032;-72
2022/12/18 00:13:06;;;;;;;9.57;4.65;;;;;;;2.18;100.00;101821.47;5031287;28;20496;-72
2022/12/18 00:15:34;;;;;;;9.55;4.68;;;;;;;1.99;100.00;101826.47;5028269;28;20029;-72
2022/12/18 00:18:00;;;;;;;5.80;3.17;;;;;;;1.92;100.00;101827.56;5029396;28;20552;-72
2022/12/18 00:20:25;;;;;;;4.15;2.97;;;;;;;2.24;100.00;101827.22;5030633;28;20037;-72
2022/12/18 00:22:54;;;;;;;3.45;1.85;;;;;;;2.55;98.85;101826.03;5027337;28;20021;-73
2022/12/18 00:25:19;;;;;;;3.00;1.70;;;;;;;3.06;90.58;101829.97;5029534;28;20038;-72
2022/12/18 00:27:45;;;;;;;3.72;2.08;;;;;;;3.43;88.02;101837.81;5027998;28;20067;-72
2022/12/18 00:30:11;;;;;;;3.40;2.00;;;;;;;3.60;84.25;101834.53;5027292;28;20029;-72
2022/12/18 00:32:37;;;;;;;2.53;1.63;;;;;;;3.65;83.29;101833.44;5030461;28;20021;-72
2022/12/18 00:35:03;;;;;;;4.43;2.38;;;;;;;3.47;86.55;101852.25;5026014;28;20091;-73
2022/12/18 00:37:28;;;;;;;4.28;2.47;;;;;;;3.41;86.30;101857.66;5025757;28;20049;-72
2022/12/18 00:39:54;;;;;;;5.97;3.22;;;;;;;3.25;90.12;101864.38;5024333;28;20033;-72
2022/12/18 00:45:04;;;;;;;5.65;3.25;;;;;;;2.49;100.00;101857.97;5025076;28;20072;-72
2022/12/18 00:47:29;;;;;;;5.85;2.83;;;;;;;2.21;100.00;101865.06;5029897;28;20120;-72
2022/12/18 00:49:54;;;;;;;5.55;2.92;;;;;;;2.11;100.00;101856.88;5028758;28;20029;-73
2022/12/18 00:52:20;;;;;;;5.68;2.63;;;;;;;2.14;100.00;101861.91;5028508;28;20040;-72
2022/12/18 00:54:45;;;;;;;4.57;2.72;;;;;;;2.12;100.00;101855.97;5028568;28;20048;-72
2022/12/18 00:57:11;;;;;;;4.30;2.10;;;;;;;2.16;100.00;101854.13;5031169;28;20033;-73
2022/12/18 00:59:36;;;;;;;5.47;2.90;;;;;;;1.98;100.00;101855.63;5027350;28;20133;-71
2022/12/18 01:02:02;;;;;;;4.50;2.97;;;;;;;1.72;100.00;101853.16;5029389;28;20088;-71
2022/12/18 01:04:28;;;;;;;5.65;3.40;;;;;;;1.54;100.00;101864.91;5022988;28;20048;-72
2022/12/18 01:06:53;;;;;;;5.70;3.13;;;;;;;1.53;100.00;101856.38;5025183;28;20048;-72
2022/12/18 01:09:19;;;;;;;7.03;3.67;;;;;;;1.43;100.00;101872.13;5026277;28;20051;-72
2022/12/18 01:11:44;;;;;;;8.30;4.03;;;;;;;1.40;100.00;101869.72;5030658;28;20039;-73
2022/12/18 01:14:10;;;;;;;6.05;3.10;;;;;;;1.35;100.00;101866.44;5028520;28;20048;-72
2022/12/18 01:16:35;;;;;;;5.03;3.25;;;;;;;1.29;100.00;101870.91;5022464;28;20025;-72
2022/12/18 01:19:01;;;;;;;6.55;3.47;;;;;;;1.37;100.00;101864.69;5029868;28;20057;-72
2022/12/18 01:21:26;;;;;;;5.93;3.30;;;;;;;1.43;100.00;101856.72;5029173;28;20037;-72
2022/12/18 01:23:56;;;;;;;5.47;3.40;;;;;;;1.42;100.00;101857.66;5024608;28;20040;-72
2022/12/18 01:26:23;;;;;;;6.05;3.08;;;;;;;1.52;100.00;101856.41;5022200;28;20045;-72
2022/12/18 01:28:49;;;;;;;5.93;3.10;;;;;;;1.57;100.00;101855.38;5026297;28;20034;-72
2022/12/18 01:31:23;;;;;;;5.00;3.55;;;;;;;1.56;100.00;101865.69;5030428;28;20036;-73
2022/12/18 01:33:50;;;;;;;6.53;3.15;;;;;;;1.49;100.00;101862.50;5027925;28;20029;-72
2022/12/18 01:36:31;;;;;;;6.63;3.60;;;;;;;1.36;100.00;101871.53;5025287;28;20116;-73
2022/12/18 01:38:59;;;;;;;6.63;3.63;;;;;;;1.20;100.00;101870.38;5028888;28;20033;-72
2022/12/18 01:42:01;;;;;;;8.65;3.97;;;;;;;1.12;100.00;101869.78;5021469;28;20038;-73
2022/12/18 01:44:51;;;;;;;7.22;4.28;;;;;;;0.91;100.00;101884.16;5002931;28;20067;-72
2022/12/18 01:47:23;;;;;;;7.07;4.00;;;;;;;0.84;100.00;101882.66;5022996;28;20112;-72
2022/12/18 01:49:48;;;;;;;7.70;3.83;;;;;;;1.09;100.00;101880.13;5021623;28;20095;-74
2022/12/18 01:52:15;;;;;;;6.18;3.47;;;;;;;1.19;100.00;101882.38;5028259;28;20037;-72
2022/12/18 01:54:41;;;;;;;3.80;2.33;;;;;;;2.33;96.38;101886.03;5024994;28;20148;-72
2022/12/18 01:57:06;;;;;;;5.00;2.70;;;;;;;2.82;89.33;101893.63;5026436;28;20482;-73
2022/12/18 01:59:33;;;;;;;6.32;2.60;;;;;;;3.01;89.85;101894.53;5029321;28;20194;-72
2022/12/18 02:01:59;;;;;;;6.20;3.15;;;;;;;3.11;88.12;101902.75;5029070;28;20504;-72
2022/12/18 02:04:27;;;;;;;6.35;3.22;;;;;;;2.94;90.95;101906.81;5027218;28;20033;-74
2022/12/18 02:07:05;;;;;;;6.90;3.60;;;;;;;2.64;93.81;101908.03;5023166;28;20116;-73
2022/12/18 02:09:43;;;;;;;6.50;3.53;;;;;;;2.54;89.27;101922.97;5022349;28;20037;-73
2022/12/18 02:12:21;;;;;;;5.55;3.33;;;;;;;2.96;82.42;101920.47;5027767;28;20029;-72
2022/12/18 02:15:09;;;;;;;4.68;2.92;;;;;;;3.24;80.45;101914.22;5024311;28;20037;-72
2022/12/18 02:17:40;;;;;;;5.40;2.97;;;;;;;3.31;81.09;101911.31;5024666;28;20029;-72
2022/12/18 02:20:31;;;;;;;4.90;2.90;;;;;;;3.34;75.73;101918.91;5027372;28;20033;-72
2022/12/18 02:23:15;;;;;;;5.05;2.92;;;;;;;3.40;77.26;101925.56;5026506;28;20026;-72
2022/12/18 02:26:03;;;;;;;3.83;2.60;;;;;;;3.32;76.12;101917.31;5026441;28;20505;-73
2022/12/18 02:28:34;;;;;;;5.82;3.28;;;;;;;3.24;78.61;101927.09;5030536;28;20040;-72
2022/12/18 02:31:05;;;;;;;4.95;2.72;;;;;;;3.31;82.24;101925.94;5034562;28;20029;-73
2022/12/18 02:33:33;;;;;;;5.40;3.05;;;;;;;3.20;81.11;101938.44;5031018;28;20052;-72
2022/12/18 02:36:00;;;;;;;6.40;3.50;;;;;;;3.35;76.72;101937.78;5032624;28;20033;-73
2022/12/18 02:38:27;;;;;;;6.45;3.22;;;;;;;3.36;80.75;101943.78;5035234;28;20518;-73
2022/12/18 02:40:53;;;;;;;6.03;3.20;;;;;;;3.32;78.99;101931.03;5033664;28;20477;-73
2022/12/18 02:43:19;;;;;;;4.88;2.72;;;;;;;3.31;80.86;101941.38;5027591;28;20436;-73
2022/12/18 02:45:52;;;;;;;4.75;2.33;;;;;;;3.37;74.60;101950.59;5032778;28;20029;-73
2022/12/18 02:48:21;;;;;;;5.72;3.05;;;;;;;3.43;74.89;101948.63;5035288;28;20384;-72
2022/12/18 02:50:59;;;;;;;5.15;2.60;;;;;;;3.39;75.69;101951.38;5034571;28;20033;-72
2022/12/18 02:53:33;;;;;;;4.32;2.50;;;;;;;3.62;72.14;101948.72;5033886;28;20026;-72
2022/12/18 02:56:20;;;;;;;3.03;1.95;;;;;;;3.61;73.65;101955.59;5029766;28;20029;-72
2022/12/18 02:59:18;;;;;;;3.35;2.20;;;;;;;3.70;66.57;101956.97;5033794;28;20100;-73
2022/12/18 03:02:16;;;;;;;3.92;2.50;;;;;;;3.58;73.97;101954.88;5017237;28;20119;-72
2022/12/18 03:04:49;;;;;;;5.10;2.72;;;;;;;3.08;81.58;101954.38;5033694;28;20437;-73
2022/12/18 03:07:36;;;;;;;5.07;2.63;;;;;;;2.64;81.26;101959.50;5023892;28;20026;-73
2022/12/18 03:10:03;;;;;;;5.40;2.53;;;;;;;2.90;79.37;101968.78;5035901;28;20033;-73
2022/12/18 03:12:34;;;;;;;3.10;1.92;;;;;;;3.14;79.60;101960.13;5024647;28;20382;-73
2022/12/18 03:15:09;;;;;;;4.50;2.08;;;;;;;3.17;80.04;101954.84;5035781;28;20041;-72
2022/12/18 03:17:36;;;;;;;4.38;2.97;;;;;;;3.04;81.40;101960.53;5025350;28;20087;-73
2022/12/18 03:20:14;;;;;;;4.95;2.60;;;;;;;3.07;77.59;101963.81;5033099;28;20029;-72
2022/12/18 03:22:43;;;;;;;4.78;2.60;;;;;;;3.13;77.36;101973.88;5023523;28;20064;-72
2022/12/18 03:25:13;;;;;;;3.70;2.75;;;;;;;3.33;75.62;101970.50;5039333;28;20423;-72
2022/12/18 03:27:44;;;;;;;5.20;2.45;;;;;;;3.36;74.94;101972.97;5033388;28;20381;-73
2022/12/18 03:30:13;;;;;;;5.38;3.42;;;;;;;3.37;75.34;101974.63;5027349;28;20030;-72
2022/12/18 03:32:52;;;;;;;5.10;2.88;;;;;;;3.44;71.98;101977.81;5031416;28;20033;-72
2022/12/18 03:35:22;;;;;;;6.20;2.88;;;;;;;3.46;72.72;101981.16;5030464;28;20141;-73
2022/12/18 03:37:48;;;;;;;4.68;2.75;;;;;;;3.43;74.79;101983.84;5047879;28;20044;-73
2022/12/18 03:40:14;;;;;;;6.18;3.45;;;;;;;3.32;76.06;101990.28;5032146;28;20033;-72
2022/12/18 03:42:51;;;;;;;5.13;3.25;;;;;;;3.27;72.61;101994.78;5027232;28;20080;-73
2022/12/18 03:45:51;;;;;;;4.95;2.90;;;;;;;3.13;77.08;101993.66;5024434;28;20116;-73
2022/12/18 03:48:24;;;;;;;5.32;3.22;;;;;;;2.81;80.51;101994.91;5014350;28;20041;-73
2022/12/18 03:50:59;;;;;;;7.57;4.43;;;;;;;3.08;75.93;101993.00;5022409;28;20116;-72
2022/12/18 03:53:41;;;;;;;5.60;3.47;;;;;;;3.24;76.10;101992.34;5029938;28;20022;-73
2022/12/18 03:56:09;;;;;;;6.35;4.18;;;;;;;3.13;77.27;101993.66;5031572;28;20442;-73
2022/12/18 03:58:38;;;;;;;6.25;3.88;;;;;;;3.17;77.27;102000.38;5024711;28;20041;-73
2022/12/18 04:01:07;;;;;;;6.90;4.03;;;;;;;3.10;77.22;101997.19;5030517;28;20053;-73
2022/12/18 04:03:35;;;;;;;6.70;4.03;;;;;;;3.15;76.92;101997.00;5030828;28;20041;-72
2022/12/18 04:06:02;;;;;;;6.13;3.60;;;;;;;3.20;74.82;102007.97;5027979;28;20487;-72
2022/12/18 04:08:29;;;;;;;7.57;3.47;;;;;;;3.23;77.29;102010.44;5031450;28;20033;-72
2022/12/18 04:10:54;;;;;;;6.93;3.92;;;;;;;2.99;80.41;102012.19;5029445;28;20210;-72
2022/12/18 04:13:34;;;;;;;5.07;2.72;;;;;;;2.74;81.35;102006.31;5024980;28;20054;-73
2022/12/18 04:15:59;;;;;;;3.95;2.67;;;;;;;2.92;78.88;102016.75;5029564;28;20385;-73
2022/12/18 04:18:25;;;;;;;5.63;3.50;;;;;;;3.03;77.63;102023.22;5031206;28;20040;-73
2022/12/18 04:20:50;;;;;;;6.63;2.90;;;;;;;3.12;75.34;102017.72;5028352;28;20376;-74
2022/12/18 04:23:16;;;;;;;5.32;3.25;;;;;;;2.98;79.39;102037.09;5030660;28;20040;-72
2022/12/18 04:25:41;;;;;;;5.38;2.92;;;;;;;2.63;83.07;102041.00;5031309;28;20033;-73
2022/12/18 04:28:07;;;;;;;7.25;3.25;;;;;;;2.31;85.42;102039.59;5029654;28;20029;-73
2022/12/18 04:30:33;;;;;;;7.45;3.05;;;;;;;2.04;88.32;102043.09;5022690;28;20109;-73
2022/12/18 04:32:58;;;;;;;7.15;3.85;;;;;;;1.87;90.96;102047.97;5031662;28;20025;-72
2022/12/18 04:35:24;;;;;;;6.30;3.83;;;;;;;1.81;92.63;102043.03;5026518;28;20044;-73
2022/12/18 04:37:49;;;;;;;5.10;3.60;;;;;;;1.68;94.57;102045.13;5031430;28;20029;-72
2022/12/18 04:40:15;;;;;;;8.02;4.25;;;;;;;1.62;96.06;102050.47;5017821;28;20030;-73
2022/12/18 04:42:40;;;;;;;6.50;3.47;;;;;;;1.51;97.90;102058.50;5026299;28;20064;-73
2022/12/18 04:45:07;;;;;;;5.90;4.00;;;;;;;1.43;99.79;102062.19;5030774;28;20040;-72
2022/12/18 04:47:32;;;;;;;6.40;3.55;;;;;;;1.29;100.00;102067.78;5028401;28;20034;-72
2022/12/18 04:49:58;;;;;;;7.30;3.92;;;;;;;1.39;95.96;102071.75;5028961;28;20084;-73
2022/12/18 04:52:23;;;;;;;5.80;2.95;;;;;;;1.82;93.07;102057.56;5029523;28;20111;-73
2022/12/18 04:54:49;;;;;;;6.88;4.13;;;;;;;2.11;89.15;102069.44;5030505;28;20147;-73
2022/12/18 04:57:14;;;;;;;6.45;4.05;;;;;;;1.97;91.98;102067.31;5031224;28;20029;-72
2022/12/18 04:59:39;;;;;;;6.90;3.83;;;;;;;1.81;93.63;102079.84;5029471;28;20481;-73
2022/12/18 05:02:05;;;;;;;5.53;3.72;;;;;;;1.62;96.25;102078.72;5028003;28;20067;-73
2022/12/18 05:04:31;;;;;;;7.40;4.28;;;;;;;1.41;98.92;102090.53;5019808;28;20114;-73
2022/12/18 05:06:56;;;;;;;7.05;4.43;;;;;;;1.16;100.00;102097.28;5027788;28;20039;-72
2022/12/18 05:09:22;;;;;;;8.55;4.93;;;;;;;1.04;100.00;102101.03;5027317;28;20447;-73
2022/12/18 05:11:48;;;;;;;8.80;4.88;;;;;;;0.95;100.00;102103.84;5029104;28;20083;-72
2022/12/18 05:14:13;;;;;;;8.18;4.85;;;;;;;0.82;100.00;102098.25;5030460;28;20053;-72
2022/12/18 05:16:39;;;;;;;7.20;4.88;;;;;;;0.66;100.00;102109.78;5023017;28;20045;-73
2022/12/18 05:19:04;;;;;;;10.25;5.05;;;;;;;0.66;100.00;102110.63;5030076;28;20037;-72
2022/12/18 05:21:29;;;;;;;7.63;5.00;;;;;;;0.64;100.00;102114.13;5024119;28;20044;-72
2022/12/18 05:23:55;;;;;;;8.18;4.72;;;;;;;0.58;100.00;102117.69;5030030;28;20468;-72
2022/12/18 05:26:20;;;;;;;13.38;5.00;;;;;;;0.52;100.00;102107.59;5024895;28;20046;-72
2022/12/18 05:28:46;;;;;;;8.20;5.22;;;;;;;0.55;100.00;102111.81;5029220;28;20025;-72
2022/12/18 05:31:12;;;;;;;7.13;4.53;;;;;;;0.50;100.00;102113.66;5028272;28;20029;-72
2022/12/18 05:33:38;;;;;;;8.32;5.32;;;;;;;0.46;100.00;102122.31;5028810;28;20029;-72
2022/12/18 05:36:06;;;;;;;7.53;4.90;;;;;;;0.40;100.00;102123.31;5018122;28;20056;-72
2022/12/18 05:38:33;;;;;;;10.55;5.65;;;;;;;0.33;100.00;102126.91;5026904;28;20038;-73
2022/12/18 05:40:59;;;;;;;10.32;5.90;;;;;;;0.28;100.00;102124.47;5030060;28;20400;-73
2022/12/18 05:43:25;;;;;;;8.98;5.40;;;;;;;0.27;100.00;102121.94;5024997;28;20045;-73
2022/12/18 05:45:52;;;;;;;10.68;5.32;;;;;;;0.28;100.00;102129.59;5023564;28;20400;-72
2022/12/18 05:48:18;;;;;;;10.98;6.40;;;;;;;0.32;100.00;102127.81;5028229;28;20116;-72
2022/12/18 05:50:45;;;;;;;12.05;6.20;;;;;;;0.46;100.00;102127.47;5024148;28;20104;-74
2022/12/18 05:53:13;;;;;;;10.82;5.88;;;;;;;0.61;100.00;102130.44;5037267;28;20025;-72
2022/12/18 05:55:40;;;;;;;9.60;4.93;;;;;;;0.51;100.00;102131.56;5029520;28;20033;-73
2022/12/18 05:58:07;;;;;;;10.27;6.07;;;;;;;0.40;100.00;102132.75;5028399;28;20017;-72
2022/12/18 06:00:35;;;;;;;10.73;5.35;;;;;;;0.28;100.00;102132.16;5026065;28;20037;-72
2022/12/18 06:03:01;;;;;;;10.57;6.10;;;;;;;0.29;100.00;102136.41;5028947;28;20035;-73
2022/12/18 06:05:27;;;;;;;34.47;15.82;;;;;;;0.31;100.00;102138.94;5026171;28;20029;-72
2022/12/18 06:07:53;;;;;;;23.23;11.25;;;;;;;0.45;100.00;102143.72;5028081;28;20030;-72
2022/12/18 06:10:19;;;;;;;14.20;7.38;;;;;;;0.45;100.00;102146.28;5021150;28;20033;-72
2022/12/18 06:12:44;;;;;;;12.27;7.32;;;;;;;0.38;100.00;102140.47;5029676;28;20021;-72
2022/12/18 06:15:10;;;;;;;10.50;6.28;;;;;;;0.35;100.00;102147.41;5025935;28;20053;-72
2022/12/18 06:17:36;;;;;;;9.98;6.07;;;;;;;0.31;100.00;102144.06;5028715;28;20069;-72
2022/12/18 06:20:02;;;;;;;27.98;13.45;;;;;;;0.24;100.00;102143.38;5023267;28;20048;-73
2022/12/18 06:22:27;;;;;;;26.13;12.75;;;;;;;0.19;100.00;102154.63;5024903;28;20033;-73
2022/12/18 06:24:53;;;;;;;23.08;10.40;;;;;;;0.16;100.00;102155.53;5028079;28;20132;-73
2022/12/18 06:27:18;;;;;;;18.15;8.80;;;;;;;0.07;100.00;102160.03;5026466;28;20045;-73
2022/12/18 06:29:44;;;;;;;13.82;7.63;;;;;;;0.19;100.00;102165.72;5027652;28;20030;-72
2022/12/18 06:32:10;;;;;;;24.27;11.98;;;;;;;0.24;100.00;102169.00;5029494;28;20045;-72
2022/12/18 06:34:37;;;;;;;30.77;14.32;;;;;;;0.16;100.00;102160.66;5021776;28;20099;-73
2022/12/18 06:37:03;;;;;;;14.77;7.60;;;;;;;0.09;100.00;102169.38;5022275;28;20033;-72
2022/12/18 06:39:28;;;;;;;19.60;10.65;;;;;;;-0.03;100.00;102170.53;5024192;28;20533;-72
2022/12/18 06:41:54;;;;;;;16.42;8.95;;;;;;;-0.16;100.00;102163.16;5020177;28;20033;-71
2022/12/18 06:44:19;;;;;;;18.67;10.60;;;;;;;-0.24;100.00;102172.72;5026311;28;20091;-73
2022/12/18 06:46:45;;;;;;;16.20;9.18;;;;;;;-0.27;100.00;102171.06;5023566;28;20021;-74
2022/12/18 06:49:10;;;;;;;14.13;8.18;;;;;;;-0.28;100.00;102165.97;5020392;28;20032;-72
2022/12/18 06:51:36;;;;;;;16.08;8.80;;;;;;;-0.28;100.00;102171.94;5021563;28;20060;-74
2022/12/18 06:54:02;;;;;;;17.70;9.52;;;;;;;-0.28;100.00;102178.78;5023631;28;20048;-74
2022/12/18 06:56:28;;;;;;;19.08;9.55;;;;;;;-0.31;100.00;102186.53;5021023;28;20034;-73
2022/12/18 06:58:54;;;;;;;20.75;10.43;;;;;;;-0.36;100.00;102200.28;5029220;28;20037;-72
2022/12/18 07:01:20;;;;;;;15.23;8.70;;;;;;;-0.37;100.00;102196.03;5018025;28;20041;-73
2022/12/18 07:03:46;;;;;;;17.55;8.07;;;;;;;-0.35;100.00;102201.13;5028202;28;20130;-73
2022/12/18 07:06:17;;;;;;;14.30;7.80;;;;;;;-0.39;100.00;102207.19;5025909;28;20128;-73
2022/12/18 07:08:43;;;;;;;11.93;7.20;;;;;;;-0.39;100.00;102214.84;5043432;28;20040;-72
2022/12/18 07:11:09;;;;;;;15.25;8.43;;;;;;;-0.39;100.00;102200.34;5021792;28;20033;-72
2022/12/18 07:13:34;;;;;;;15.40;8.70;;;;;;;-0.37;100.00;102200.31;5028850;28;20474;-73
2022/12/18 07:16:10;;;;;;;15.85;8.98;;;;;;;-0.39;100.00;102202.91;5031314;28;20048;-73
2022/12/18 07:18:36;;;;;;;21.98;10.25;;;;;;;-0.34;100.00;102220.72;5026305;28;20037;-72
2022/12/18 07:21:09;;;;;;;18.80;10.30;;;;;;;-0.28;100.00;102219.75;5024484;28;20056;-73
2022/12/18 07:23:35;;;;;;;16.95;9.93;;;;;;;-0.28;100.00;102219.75;5028978;28;20618;-74
2022/12/18 07:26:05;;;;;;;17.52;10.52;;;;;;;-0.21;100.00;102231.56;5024538;28;20037;-74
2022/12/18 07:28:32;;;;;;;18.10;10.68;;;;;;;-0.18;100.00;102232.34;5026011;28;20029;-75
2022/12/18 07:30:58;;;;;;;15.57;9.63;;;;;;;-0.12;100.00;102247.59;5029376;28;20492;-73
2022/12/18 07:33:25;;;;;;;18.63;11.73;;;;;;;-0.07;100.00;102244.94;5026291;28;20047;-73
2022/12/18 07:35:50;;;;;;;17.45;9.88;;;;;;;-0.01;100.00;102244.81;5024883;28;20033;-73
2022/12/18 07:38:16;;;;;;;19.73;11.32;;;;;;;0.06;100.00;102245.47;5021659;28;20362;-73
2022/12/18 07:40:41;;;;;;;20.75;11.98;;;;;;;0.06;100.00;102254.00;5028660;28;20520;-72
2022/12/18 07:43:07;;;;;;;17.55;10.90;;;;;;;0.13;100.00;102253.00;5042744;28;20503;-73
2022/12/18 07:45:32;;;;;;;19.52;12.98;;;;;;;0.17;100.00;102257.19;5023038;28;20053;-73
2022/12/18 07:47:58;;;;;;;20.08;11.60;;;;;;;0.24;100.00;102253.59;5025985;28;20127;-72
2022/12/18 07:50:23;;;;;;;19.13;11.68;;;;;;;0.28;100.00;102251.81;5025034;28;20500;-73
2022/12/18 07:52:49;;;;;;;22.40;11.98;;;;;;;0.45;100.00;102259.13;5024332;28;20030;-73
2022/12/18 07:55:14;;;;;;;21.75;12.73;;;;;;;0.54;100.00;102256.31;5027841;28;20060;-72
2022/12/18 07:57:40;;;;;;;26.80;13.95;;;;;;;0.69;100.00;102263.66;5024539;28;20121;-73
2022/12/18 08:00:06;;;;;;;22.95;13.32;;;;;;;0.75;100.00;102257.53;5028647;28;20025;-73
2022/12/18 08:02:32;;;;;;;20.02;12.10;;;;;;;0.75;100.00;102260.94;5029067;28;20033;-72
2022/12/18 08:04:58;;;;;;;19.90;12.02;;;;;;;0.78;100.00;102263.41;5023071;28;20036;-73
2022/12/18 08:07:23;;;;;;;28.27;15.95;;;;;;;0.82;100.00;102269.31;5023085;28;20041;-74
2022/12/18 08:09:48;;;;;;;26.55;14.43;;;;;;;0.86;100.00;102276.91;5017494;28;20053;-73
2022/12/18 08:12:14;;;;;;;22.55;13.80;;;;;;;0.96;100.00;102270.63;5026333;28;20037;-73
2022/12/18 08:14:39;;;;;;;20.52;11.40;;;;;;;1.06;100.00;102278.09;5030039;28;20061;-72
2022/12/18 08:17:05;;;;;;;21.35;10.80;;;;;;;1.13;100.00;102287.34;5026744;28;20116;-73
2022/12/18 08:19:32;;;;;;;22.05;11.32;;;;;;;1.22;100.00;102284.53;5028724;28;20060;-74
2022/12/18 08:21:58;;;;;;;19.85;11.23;;;;;;;1.39;100.00;102291.78;5025993;28;20191;-73
2022/12/18 08:24:23;;;;;;;17.75;11.52;;;;;;;1.59;100.00;102289.50;5022866;28;20098;-74
2022/12/18 08:26:49;;;;;;;19.40;10.60;;;;;;;1.69;100.00;102284.94;5029608;28;20366;-73
2022/12/18 08:29:14;;;;;;;15.73;9.85;;;;;;;1.73;100.00;102286.56;5021990;28;20045;-74
2022/12/18 08:31:40;;;;;;;17.15;9.88;;;;;;;1.74;100.00;102295.94;5026414;28;20029;-73
2022/12/18 08:34:05;;;;;;;17.50;10.45;;;;;;;1.80;100.00;102300.91;5026561;28;20052;-72
2022/12/18 08:36:31;;;;;;;19.70;11.50;;;;;;;1.82;100.00;102301.72;5025045;28;20030;-73
2022/12/18 08:38:56;;;;;;;17.88;10.52;;;;;;;1.84;100.00;102299.94;5027982;28;20037;-72
2022/12/18 08:41:22;;;;;;;16.58;10.55;;;;;;;1.91;100.00;102306.56;5023837;28;20480;-72
2022/12/18 08:46:41;;;;;;;22.13;10.45;;;;;;;2.09;100.00;102313.75;5025321;28;20047;-72
2022/12/18 08:49:07;;;;;;;19.13;12.43;;;;;;;2.16;100.00;102317.81;5037774;28;20052;-71
2022/12/18 08:51:33;;;;;;;25.10;12.50;;;;;;;2.22;100.00;102325.38;5023790;28;20503;-73
2022/12/18 08:53:59;;;;;;;20.13;11.32;;;;;;;2.26;100.00;102329.53;5018110;28;20056;-72
2022/12/18 08:56:24;;;;;;;27.08;14.88;;;;;;;2.33;100.00;102331.03;5025791;28;20497;-73
2022/12/18 08:58:54;;;;;;;26.92;14.02;;;;;;;2.42;100.00;102332.47;5025340;28;20034;-73
2022/12/18 09:01:20;;;;;;;30.52;13.70;;;;;;;2.49;100.00;102336.53;5023561;28;20069;-73
2022/12/18 09:03:47;;;;;;;34.30;18.83;;;;;;;2.55;100.00;102340.66;5034638;28;20522;-73
2022/12/18 09:06:17;;;;;;;32.17;17.23;;;;;;;2.60;100.00;102349.06;5027638;28;20117;-73
2022/12/18 09:08:46;;;;;;;32.53;16.40;;;;;;;2.65;100.00;102348.03;5011616;28;20030;-74
2022/12/18 09:11:20;;;;;;;30.95;15.25;;;;;;;2.69;100.00;102353.09;5012173;28;20037;-73
2022/12/18 09:13:45;;;;;;;26.40;13.05;;;;;;;2.76;100.00;102358.00;5018633;28;20092;-73
2022/12/18 09:16:11;;;;;;;17.90;10.18;;;;;;;2.80;100.00;102358.75;5020675;28;20077;-73
2022/12/18 09:18:36;;;;;;;20.95;11.68;;;;;;;2.78;100.00;102355.38;5021927;28;20158;-73
2022/12/18 09:21:16;;;;;;;17.48;10.60;;;;;;;2.78;100.00;102358.78;5026909;28;20037;-73
2022/12/18 09:23:43;;;;;;;19.08;10.27;;;;;;;2.82;100.00;102359.53;5027461;28;20026;-73
2022/12/18 09:26:09;;;;;;;15.20;9.65;;;;;;;2.84;100.00;102373.19;5022913;28;20055;-73
2022/12/18 09:28:34;;;;;;;18.20;10.02;;;;;;;2.85;100.00;102362.84;5020890;28;20112;-70
2022/12/18 09:31:06;;;;;;;14.25;8.95;;;;;;;2.85;100.00;102370.56;5022209;28;20040;-73
2022/12/18 09:33:32;;;;;;;12.68;6.97;;;;;;;2.92;100.00;102372.06;5027680;28;20116;-73
2022/12/18 09:35:57;;;;;;;12.05;7.80;;;;;;;2.97;100.00;102372.75;5022802;28;20116;-73
2022/12/18 09:38:23;;;;;;;12.60;7.32;;;;;;;3.04;100.00;102373.41;5025930;28;20619;-73
2022/12/18 09:40:57;;;;;;;12.30;7.35;;;;;;;3.08;100.00;102371.56;5026344;28;20041;-72
2022/12/18 09:43:40;;;;;;;13.65;7.72;;;;;;;3.13;100.00;102374.84;5023840;28;20029;-72
2022/12/18 09:46:15;;;;;;;16.80;9.02;;;;;;;3.18;100.00;102381.53;5023385;28;20052;-71
2022/12/18 09:48:44;;;;;;;14.95;8.50;;;;;;;3.26;100.00;102369.22;5020387;28;20029;-73
2022/12/18 09:51:19;;;;;;;11.18;6.65;;;;;;;3.26;100.00;102369.22;5026228;28;20457;-73
2022/12/18 09:53:50;;;;;;;15.93;8.20;;;;;;;3.28;100.00;102367.44;5017239;28;20162;-73
2022/12/18 09:56:19;;;;;;;13.50;7.60;;;;;;;3.36;100.00;102369.72;5020221;28;20389;-73
2022/12/18 09:59:04;;;;;;;17.23;8.05;;;;;;;3.38;98.58;102362.78;5019718;28;20048;-72
2022/12/18 10:01:31;;;;;;;13.75;7.60;;;;;;;3.42;98.81;102355.81;5021123;28;20384;-72
2022/12/18 10:03:58;;;;;;;12.00;7.38;;;;;;;3.49;98.71;102358.13;5030355;28;20049;-73
2022/12/18 10:06:36;;;;;;;10.95;6.25;;;;;;;3.53;99.07;102354.53;5027604;28;20037;-73
2022/12/18 10:09:06;;;;;;;10.75;6.35;;;;;;;3.55;99.41;102351.91;5025589;28;20025;-73
2022/12/18 10:11:40;;;;;;;10.82;6.32;;;;;;;3.57;99.17;102350.97;5023020;28;20037;-69
2022/12/18 10:14:18;;;;;;;11.05;7.00;;;;;;;3.60;98.07;102350.84;5018859;28;20037;-70
2022/12/18 10:16:54;;;;;;;11.63;6.97;;;;;;;3.66;97.21;102352.38;5032385;28;20837;-70
2022/12/18 10:19:57;;;;;;;11.18;6.38;;;;;;;3.65;96.95;102356.69;5023161;28;20033;-70
2022/12/18 10:22:47;;;;;;;11.95;6.78;;;;;;;3.63;95.74;102363.66;5021607;28;20041;-70
2022/12/18 10:25:23;;;;;;;13.00;6.68;;;;;;;3.74;97.61;102368.44;5019959;28;20065;-69
2022/12/18 10:27:54;;;;;;;12.88;8.27;;;;;;;3.78;97.79;102362.25;5017637;28;20400;-70
2022/12/18 10:30:22;;;;;;;11.50;6.45;;;;;;;3.86;96.55;102355.06;5020053;28;20126;-71
2022/12/18 10:32:47;;;;;;;22.65;7.15;;;;;;;3.96;96.26;102348.69;5021450;28;20037;-72
2022/12/18 10:35:25;;;;;;;17.23;7.03;;;;;;;3.97;95.89;102349.53;5023327;28;20037;-69
2022/12/18 10:38:13;;;;;;;10.95;5.78;;;;;;;4.07;85.39;102353.47;5024461;28;20032;-70
2022/12/18 10:40:49;;;;;;;8.45;4.65;;;;;;;4.31;82.40;102344.78;5013373;28;20129;-70
2022/12/18 10:43:19;;;;;;;10.27;5.10;;;;;;;4.38;85.29;102339.38;5019393;28;20087;-70
2022/12/18 10:46:02;;;;;;;8.05;4.90;;;;;;;4.33;86.20;102342.97;5024110;28;20044;-70
2022/12/18 10:48:29;;;;;;;7.95;4.03;;;;;;;4.42;84.34;102336.63;5025720;28;20087;-70
2022/12/18 10:50:56;;;;;;;9.15;4.55;;;;;;;4.63;80.82;102329.78;5027764;28;20022;-70
2022/12/18 10:53:25;;;;;;;8.13;4.30;;;;;;;4.80;80.06;102331.66;5026303;28;20354;-71
2022/12/18 10:55:53;;;;;;;7.30;4.43;;;;;;;4.76;82.43;102325.78;5028925;28;20038;-70
2022/12/18 10:58:33;;;;;;;7.57;4.50;;;;;;;4.62;83.59;102328.09;5027163;28;20385;-70
2022/12/18 11:01:12;;;;;;;9.80;4.80;;;;;;;4.50;85.72;102328.59;5024501;28;20033;-70
2022/12/18 11:03:40;;;;;;;8.88;4.53;;;;;;;4.40;86.09;102328.09;5028938;28;20072;-70
2022/12/18 11:06:13;;;;;;;10.50;5.18;;;;;;;4.40;87.01;102322.09;5029792;28;20102;-71
2022/12/18 11:08:40;;;;;;;9.85;5.75;;;;;;;4.55;85.19;102306.84;5031291;28;20033;-71
2022/12/18 11:11:22;;;;;;;11.07;5.65;;;;;;;4.76;81.53;102299.97;5027976;28;20215;-73
2022/12/18 11:13:52;;;;;;;8.57;4.97;;;;;;;4.80;81.22;102311.84;5025655;28;20393;-72
2022/12/18 11:16:21;;;;;;;8.95;5.43;;;;;;;4.89;78.16;102314.06;5031351;28;20468;-72
2022/12/18 11:18:46;;;;;;;10.50;5.28;;;;;;;4.86;80.27;102309.03;5031782;28;20032;-72
2022/12/18 11:21:13;;;;;;;11.13;5.65;;;;;;;4.72;81.93;102319.09;5025679;28;20453;-72
2022/12/18 11:23:46;;;;;;;10.95;5.57;;;;;;;4.74;79.36;102317.25;5028686;28;20037;-72
2022/12/18 11:26:12;;;;;;;9.73;5.32;;;;;;;4.91;79.95;102309.69;5029644;28;20033;-72
2022/12/18 11:28:43;;;;;;;10.40;5.50;;;;;;;5.05;78.25;102313.44;5030960;28;20433;-72
2022/12/18 11:31:24;;;;;;;10.55;4.93;;;;;;;4.96;77.12;102307.75;5026040;28;20040;-72
2022/12/18 11:34:27;;;;;;;8.18;4.90;;;;;;;4.92;77.47;102306.19;5027250;28;20025;-73
2022/12/18 11:36:54;;;;;;;8.32;5.18;;;;;;;4.82;81.09;102304.03;5026172;28;20501;-73